Time;durP1;ratioP1;P1;durP2;ratioP2;P2;SDS_P1;SDS_P2;PMS_P1;PMS_P2;Temp;Humidity;BMP_temperature;BMP_pressure;BME280_temperature;BME280_humidity;BME280_pressure;Samples;Min_cycle;Max_cycle;Signal;HPM_P1;HPM_P2
2022/06/07 00:02:05;;;;;;;5.18;1.73;;;;;;;19.36;70.75;92773.56;2048200;70;20204;-72
2022/06/07 00:04:31;;;;;;;5.28;2.00;;;;;;;19.35;71.16;92766.41;2048125;70;20616;-72
2022/06/07 00:07:00;;;;;;;4.13;1.75;;;;;;;19.32;71.45;92779.88;2048108;70;20142;-71
2022/06/07 00:09:25;;;;;;;3.20;1.83;;;;;;;19.33;71.58;92778.50;2047928;70;20676;-72
2022/06/07 00:11:52;;;;;;;4.38;2.15;;;;;;;19.32;71.58;92791.31;2048163;70;20186;-71
2022/06/07 00:14:18;;;;;;;5.20;1.90;;;;;;;19.20;72.41;92791.69;2048104;70;20228;-72
2022/06/07 00:16:44;;;;;;;4.97;2.03;;;;;;;19.37;70.16;92786.44;2047717;70;20182;-72
2022/06/07 00:19:13;;;;;;;3.67;2.10;;;;;;;19.45;69.67;92778.84;2047735;70;20600;-72
2022/06/07 00:21:38;;;;;;;4.03;2.10;;;;;;;19.35;68.87;92775.69;2048004;70;20187;-72
2022/06/07 00:24:05;;;;;;;4.38;2.50;;;;;;;19.38;69.92;92771.53;2048149;70;20326;-72
2022/06/07 00:26:33;;;;;;;2.17;1.98;;;;;;;19.37;69.59;92775.03;2048213;70;20652;-72
2022/06/07 00:29:00;;;;;;;8.77;2.33;;;;;;;19.34;71.31;92785.66;2048130;70;20173;-72
2022/06/07 00:31:27;;;;;;;4.90;2.50;;;;;;;19.32;70.88;92777.03;2044758;70;20150;-71
2022/06/07 00:33:53;;;;;;;6.03;2.58;;;;;;;19.30;69.84;92772.00;2047805;70;20151;-71
2022/06/07 00:36:19;;;;;;;6.68;2.50;;;;;;;19.41;69.88;92773.03;2045055;70;20143;-71
2022/06/07 00:38:45;;;;;;;5.57;2.50;;;;;;;19.33;70.94;92772.78;2048141;70;20149;-72
2022/06/07 00:41:11;;;;;;;7.35;2.17;;;;;;;19.29;70.48;92764.84;2048187;70;20489;-71
2022/06/07 00:43:37;;;;;;;4.60;2.40;;;;;;;19.26;71.10;92760.47;2044774;70;20700;-72
2022/06/07 00:46:09;;;;;;;4.65;2.22;;;;;;;19.22;71.13;92759.63;2045188;70;20150;-71
2022/06/07 00:48:37;;;;;;;8.00;2.30;;;;;;;19.35;68.78;92761.44;2044211;70;20159;-72
2022/06/07 00:51:10;;;;;;;14.32;2.60;;;;;;;19.18;70.96;92759.50;2048164;70;20151;-72
2022/06/07 00:53:36;;;;;;;6.25;2.10;;;;;;;19.09;70.91;92754.94;2048015;70;20135;-72
2022/06/07 00:56:17;;;;;;;7.22;2.40;;;;;;;19.01;71.75;92746.84;2045106;70;20154;-72
2022/06/07 00:58:43;;;;;;;5.10;2.15;;;;;;;19.10;70.64;92745.69;2044945;70;20631;-71
2022/06/07 01:01:08;;;;;;;4.95;2.20;;;;;;;19.12;70.78;92742.19;2044981;70;20543;-71
2022/06/07 01:03:37;;;;;;;9.50;2.30;;;;;;;19.01;71.80;92750.47;2044524;70;20660;-71
2022/06/07 01:11:34;;;;;;;4.18;2.10;;;;;;;19.10;70.06;92750.69;2043988;70;20186;-71
2022/06/07 01:14:00;;;;;;;5.07;2.58;;;;;;;19.00;70.89;92760.38;2043970;70;20785;-73
2022/06/07 01:16:30;;;;;;;6.38;2.05;;;;;;;18.93;71.62;92760.88;2044001;70;20149;-72
2022/06/07 01:18:56;;;;;;;6.80;2.10;;;;;;;18.96;70.90;92771.69;2044060;70;20235;-72
2022/06/07 01:21:36;;;;;;;2.70;2.20;;;;;;;18.99;70.31;92776.06;2044607;70;20236;-72
2022/06/07 01:24:05;;;;;;;6.72;2.30;;;;;;;18.92;70.81;92779.38;2044411;70;20131;-72
2022/06/07 01:26:39;;;;;;;7.18;2.72;;;;;;;18.99;70.51;92775.34;2044548;70;20169;-72
2022/06/07 01:29:07;;;;;;;5.03;2.00;;;;;;;18.91;70.91;92775.81;2044413;70;20185;-72
2022/06/07 01:31:33;;;;;;;5.20;2.10;;;;;;;18.97;69.81;92772.44;2047820;70;20203;-71
2022/06/07 01:34:00;;;;;;;3.83;2.15;;;;;;;18.99;69.89;92775.34;2044169;70;20143;-72
2022/06/07 01:36:25;;;;;;;5.72;2.13;;;;;;;18.89;70.76;92764.34;2044405;70;20609;-72
2022/06/07 01:41:55;;;;;;;3.60;2.05;;;;;;;18.81;71.04;92764.09;2048326;70;20142;-72
2022/06/07 01:44:25;;;;;;;2.97;2.00;;;;;;;18.79;70.98;92767.59;2044909;70;20150;-72
2022/06/07 01:46:53;;;;;;;5.57;2.45;;;;;;;18.87;70.04;92755.72;2043414;70;20761;-72
2022/06/07 01:49:19;;;;;;;5.15;2.17;;;;;;;18.81;70.03;92741.28;2041337;70;20203;-71
2022/06/07 01:51:45;;;;;;;3.08;1.88;;;;;;;18.73;70.04;92741.00;2044903;70;20143;-71
2022/06/07 01:54:12;;;;;;;5.18;2.20;;;;;;;18.72;71.01;92734.59;2041669;70;20181;-71
2022/06/07 01:56:39;;;;;;;4.10;1.60;;;;;;;18.90;69.30;92728.00;2041868;70;20142;-71
2022/06/07 01:59:06;;;;;;;5.47;2.40;;;;;;;18.81;68.14;92729.13;2038931;70;20151;-71
2022/06/07 02:01:32;;;;;;;2.35;1.92;;;;;;;18.99;65.91;92716.16;2041712;70;20609;-71
2022/06/07 02:03:58;;;;;;;5.57;2.10;;;;;;;18.74;69.13;92716.81;2045031;70;20238;-71
2022/06/07 02:06:25;;;;;;;7.53;2.10;;;;;;;18.61;70.37;92718.53;2041760;70;20190;-71
2022/06/07 02:08:51;;;;;;;4.40;2.20;;;;;;;18.53;70.60;92729.69;2041549;70;20163;-71
2022/06/07 02:11:21;;;;;;;6.95;2.30;;;;;;;18.46;70.77;92717.38;2041936;69;20193;-71
2022/06/07 02:13:54;;;;;;;3.45;2.40;;;;;;;18.53;70.85;92709.72;2041621;70;20170;-71
2022/06/07 02:16:21;;;;;;;11.40;2.28;;;;;;;18.38;70.87;92702.84;2045066;69;20139;-71
2022/06/07 02:18:47;;;;;;;5.03;2.33;;;;;;;18.52;70.57;92702.56;2041762;70;20230;-71
2022/06/07 02:21:37;;;;;;;5.30;2.17;;;;;;;18.49;71.21;92706.75;2041815;70;20167;-72
2022/06/07 02:24:04;;;;;;;7.38;2.00;;;;;;;18.43;71.44;92704.44;2041889;70;20230;-71
2022/06/07 02:26:51;;;;;;;6.63;2.30;;;;;;;18.47;70.70;92701.00;2045224;70;20178;-71
2022/06/07 02:29:26;;;;;;;4.72;2.15;;;;;;;18.43;71.66;92695.88;2045065;70;20147;-71
2022/06/07 02:32:17;;;;;;;10.55;2.58;;;;;;;18.45;71.61;92693.09;2045109;70;20154;-71
2022/06/07 02:34:47;;;;;;;4.80;1.85;;;;;;;18.52;70.69;92691.91;2043120;70;20158;-71
2022/06/07 02:37:14;;;;;;;3.47;2.30;;;;;;;18.37;72.85;92681.44;2044938;69;20505;-71
2022/06/07 02:39:40;;;;;;;6.10;2.17;;;;;;;18.39;71.72;92692.19;2044747;70;20559;-71
2022/06/07 02:42:10;;;;;;;6.60;2.28;;;;;;;18.45;71.71;92683.81;2041739;70;20163;-72
2022/06/07 02:44:36;;;;;;;5.55;1.80;;;;;;;18.41;71.44;92684.41;2041696;69;20536;-71
2022/06/07 02:47:02;;;;;;;5.82;2.00;;;;;;;18.29;72.62;92684.03;2044900;70;20135;-71
2022/06/07 02:49:29;;;;;;;3.95;1.73;;;;;;;18.20;72.80;92682.31;2041609;70;20604;-71
2022/06/07 02:51:55;;;;;;;4.68;1.75;;;;;;;18.35;71.72;92686.34;2044521;70;20272;-71
2022/06/07 02:54:20;;;;;;;5.47;2.00;;;;;;;18.23;72.85;92684.53;2041339;70;20162;-70
2022/06/07 02:56:46;;;;;;;3.72;2.00;;;;;;;18.21;72.81;92690.19;2044986;70;20201;-70
2022/06/07 02:59:13;;;;;;;2.95;1.85;;;;;;;18.16;72.93;92685.03;2041619;70;20337;-70
2022/06/07 03:01:38;;;;;;;6.43;1.90;;;;;;;18.20;71.76;92682.31;2041481;70;20149;-71
2022/06/07 03:04:05;;;;;;;4.82;1.90;;;;;;;18.24;71.84;92682.44;2041405;70;20151;-73
2022/06/07 03:06:33;;;;;;;3.50;1.70;;;;;;;18.28;70.84;92671.19;2041688;70;20601;-72
2022/06/07 03:08:59;;;;;;;4.15;1.80;;;;;;;18.35;70.67;92672.09;2041778;70;20139;-72
2022/06/07 03:11:26;;;;;;;2.90;1.73;;;;;;;18.34;71.17;92667.78;2041791;69;20167;-72
2022/06/07 03:13:52;;;;;;;6.75;1.80;;;;;;;18.35;71.40;92666.41;2041727;70;20162;-72
2022/06/07 03:16:23;;;;;;;2.53;1.90;;;;;;;18.35;71.14;92674.94;2045092;70;20189;-72
2022/06/07 03:18:49;;;;;;;5.05;1.90;;;;;;;18.22;72.19;92670.97;2041674;70;20154;-72
2022/06/07 03:21:16;;;;;;;2.33;1.70;;;;;;;18.21;72.10;92661.69;2045011;70;20589;-72
2022/06/07 03:23:44;;;;;;;5.18;1.80;;;;;;;18.13;72.68;92669.25;2041729;70;20159;-72
2022/06/07 03:26:13;;;;;;;6.35;1.90;;;;;;;18.13;72.38;92666.41;2042219;70;20234;-72
2022/06/07 03:28:46;;;;;;;5.43;1.95;;;;;;;18.07;73.01;92666.94;2042226;70;20187;-72
2022/06/07 03:31:17;;;;;;;5.25;2.10;;;;;;;18.16;72.19;92673.63;2042209;69;20525;-72
2022/06/07 03:33:47;;;;;;;9.40;2.05;;;;;;;18.05;73.20;92669.72;2042109;70;20249;-72
2022/06/07 03:36:20;;;;;;;6.28;2.33;;;;;;;18.09;72.25;92678.41;2042262;70;20161;-72
2022/06/07 03:38:46;;;;;;;5.97;1.90;;;;;;;17.99;71.83;92689.47;2042244;70;20561;-72
2022/06/07 03:41:18;;;;;;;4.65;2.15;;;;;;;18.14;71.65;92699.91;2042212;70;20154;-72
2022/06/07 03:43:44;;;;;;;3.92;1.98;;;;;;;18.15;71.88;92697.81;2042192;70;20150;-72
2022/06/07 03:46:13;;;;;;;5.15;1.90;;;;;;;18.24;69.70;92699.56;2045472;70;20147;-72
2022/06/07 03:48:42;;;;;;;5.28;2.20;;;;;;;18.18;71.40;92694.34;2042103;70;20146;-72
2022/06/07 03:51:10;;;;;;;5.70;2.00;;;;;;;18.19;70.33;92698.69;2042218;70;20155;-72
2022/06/07 03:53:37;;;;;;;3.95;2.13;;;;;;;18.07;72.42;92686.16;2042142;70;20536;-71
2022/06/07 03:56:04;;;;;;;7.03;2.10;;;;;;;17.90;73.69;92682.75;2041969;70;20657;-72
2022/06/07 03:58:38;;;;;;;3.83;1.70;;;;;;;18.10;71.71;92685.56;2041906;70;20151;-72
2022/06/07 04:01:07;;;;;;;3.95;1.85;;;;;;;18.09;72.30;92683.38;2042014;70;20181;-72
2022/06/07 04:03:33;;;;;;;4.28;1.92;;;;;;;18.13;71.56;92680.66;2041878;70;20234;-72
2022/06/07 04:06:00;;;;;;;4.63;1.48;;;;;;;18.09;71.05;92678.41;2042241;70;20147;-72
2022/06/07 04:08:31;;;;;;;2.50;1.67;;;;;;;18.11;71.45;92667.09;2058364;69;20147;-72
2022/06/07 04:10:58;;;;;;;4.72;2.05;;;;;;;18.15;70.85;92657.94;2042261;70;20674;-72
2022/06/07 04:13:32;;;;;;;3.92;2.00;;;;;;;18.12;71.99;92665.69;2042149;69;20167;-72
2022/06/07 04:16:10;;;;;;;4.80;1.80;;;;;;;18.07;71.07;92663.38;2042430;70;20147;-72
2022/06/07 04:18:44;;;;;;;3.03;1.50;;;;;;;18.04;72.64;92673.97;2042050;70;20151;-72
2022/06/07 04:21:12;;;;;;;7.25;1.92;;;;;;;18.00;73.00;92665.28;2045557;69;20158;-72
2022/06/07 04:23:38;;;;;;;3.22;1.40;;;;;;;18.09;70.84;92674.81;2042161;70;20201;-72
2022/06/07 04:26:16;;;;;;;3.40;1.80;;;;;;;18.14;71.57;92662.16;2045401;70;20166;-72
2022/06/07 04:28:44;;;;;;;3.45;1.73;;;;;;;18.09;72.88;92660.56;2042164;70;20167;-72
2022/06/07 04:31:13;;;;;;;4.10;1.60;;;;;;;18.09;71.09;92661.31;2042114;70;20254;-72
2022/06/07 04:33:39;;;;;;;3.05;1.50;;;;;;;18.03;72.69;92661.13;2041974;70;20151;-72
2022/06/07 04:36:12;;;;;;;3.80;1.70;;;;;;;18.09;71.90;92652.03;2042033;70;20158;-72
2022/06/07 04:38:40;;;;;;;4.32;1.50;;;;;;;18.13;72.63;92655.00;2042230;70;20561;-72
2022/06/07 04:41:11;;;;;;;2.67;1.48;;;;;;;18.13;72.04;92647.19;2042095;70;20225;-72
2022/06/07 04:43:41;;;;;;;2.35;1.60;;;;;;;18.12;72.46;92654.28;2042117;70;20157;-72
2022/06/07 04:46:15;;;;;;;5.30;2.00;;;;;;;17.91;73.30;92655.75;2042074;69;20151;-72
2022/06/07 04:48:43;;;;;;;3.85;2.03;;;;;;;18.04;72.95;92662.56;2041959;70;20631;-72
2022/06/07 04:51:15;;;;;;;2.92;1.88;;;;;;;18.11;72.89;92657.81;2042076;70;20159;-72
2022/06/07 04:53:45;;;;;;;2.95;1.70;;;;;;;18.18;73.02;92657.31;2042052;70;20135;-72
2022/06/07 04:56:15;;;;;;;7.78;2.10;;;;;;;18.13;74.21;92655.00;2041987;70;20166;-72
2022/06/07 04:58:41;;;;;;;3.65;1.88;;;;;;;18.16;73.47;92662.25;2045206;70;20170;-72
2022/06/07 05:01:19;;;;;;;4.20;1.60;;;;;;;18.21;72.25;92653.16;2041839;70;20532;-72
2022/06/07 05:03:45;;;;;;;2.00;1.60;;;;;;;18.24;72.96;92660.38;2041612;70;20237;-72
2022/06/07 05:06:17;;;;;;;4.53;1.58;;;;;;;18.27;72.14;92658.31;2041760;69;20174;-72
2022/06/07 05:08:45;;;;;;;3.35;1.70;;;;;;;18.24;73.45;92657.53;2041780;70;20166;-72
2022/06/07 05:11:11;;;;;;;3.53;1.45;;;;;;;18.32;70.88;92656.31;2041886;70;20256;-72
2022/06/07 05:13:37;;;;;;;3.65;1.70;;;;;;;18.35;71.61;92655.00;2041984;70;20158;-73
2022/06/07 05:16:04;;;;;;;2.92;1.58;;;;;;;18.38;71.29;92656.53;2041721;70;20139;-72
2022/06/07 05:18:31;;;;;;;6.15;1.70;;;;;;;18.44;70.01;92653.84;2041914;70;20154;-72
2022/06/07 05:20:57;;;;;;;3.90;1.70;;;;;;;18.43;71.50;92653.13;2042005;70;20178;-73
2022/06/07 05:23:23;;;;;;;8.63;4.78;;;;;;;18.43;70.70;92647.44;2045322;70;20269;-73
2022/06/07 05:25:58;;;;;;;4.72;3.38;;;;;;;18.38;72.47;92657.25;2042012;70;20209;-72
2022/06/07 05:28:24;;;;;;;4.55;2.30;;;;;;;18.49;72.39;92646.88;2042008;70;20229;-73
2022/06/07 05:30:50;;;;;;;3.72;1.80;;;;;;;18.54;71.28;92643.47;2042046;70;20150;-73
2022/06/07 05:33:52;;;;;;;3.63;1.90;;;;;;;18.65;71.22;92653.09;2043317;70;20159;-73
2022/06/07 05:36:20;;;;;;;3.28;1.80;;;;;;;18.54;72.92;92657.00;2038960;70;20147;-73
2022/06/07 05:38:50;;;;;;;6.15;2.13;;;;;;;18.07;74.01;92649.84;2042012;70;20155;-72
2022/06/07 05:41:23;;;;;;;2.47;2.00;;;;;;;18.10;73.37;92651.38;2042006;70;20175;-73
2022/06/07 05:43:52;;;;;;;2.53;1.85;;;;;;;18.28;72.84;92646.25;2041997;70;20147;-73
2022/06/07 05:46:22;;;;;;;4.28;1.95;;;;;;;17.98;73.65;92643.16;2041979;70;20157;-73
2022/06/07 05:48:56;;;;;;;3.42;2.20;;;;;;;17.85;74.63;92640.59;2041671;70;20204;-72
2022/06/07 05:51:33;;;;;;;4.72;1.80;;;;;;;18.13;73.25;92643.63;2041911;70;20508;-73
2022/06/07 05:53:59;;;;;;;4.50;2.30;;;;;;;18.03;73.81;92646.88;2041932;70;20147;-73
2022/06/07 05:56:25;;;;;;;4.68;2.25;;;;;;;18.29;72.97;92639.16;2041920;70;20159;-72
2022/06/07 05:58:52;;;;;;;4.38;2.35;;;;;;;18.38;71.83;92642.28;2041931;70;20151;-72
2022/06/07 06:01:18;;;;;;;4.10;2.30;;;;;;;18.33;72.51;92644.28;2041909;70;20590;-73
2022/06/07 06:03:48;;;;;;;2.72;2.00;;;;;;;18.33;72.94;92649.97;2041601;70;20523;-73
2022/06/07 06:06:16;;;;;;;4.28;2.17;;;;;;;18.45;71.36;92655.31;2041724;70;20147;-73
2022/06/07 06:11:34;;;;;;;4.18;2.20;;;;;;;18.54;70.79;92659.88;2045317;70;20143;-72
2022/06/07 06:14:08;;;;;;;2.40;1.90;;;;;;;18.48;72.18;92668.22;2041978;70;20557;-72
2022/06/07 06:16:37;;;;;;;3.60;2.17;;;;;;;18.49;71.59;92676.13;2041983;70;20153;-72
2022/06/07 06:19:06;;;;;;;4.43;1.90;;;;;;;18.46;70.36;92668.16;2041744;70;20195;-72
2022/06/07 06:21:42;;;;;;;3.03;1.95;;;;;;;18.50;70.54;92676.84;2041884;70;20178;-72
2022/06/07 06:24:09;;;;;;;7.63;2.13;;;;;;;18.53;70.85;92678.38;2041909;70;20162;-72
2022/06/07 06:26:38;;;;;;;3.83;2.10;;;;;;;18.46;71.64;92668.16;2041900;70;20161;-72
2022/06/07 06:29:08;;;;;;;4.30;2.40;;;;;;;18.35;72.51;92663.53;2041873;70;20642;-72
2022/06/07 06:31:35;;;;;;;4.60;2.10;;;;;;;18.36;73.03;92662.88;2041907;70;20139;-73
2022/06/07 06:34:01;;;;;;;4.60;2.10;;;;;;;18.43;73.32;92666.66;2041718;70;20166;-73
2022/06/07 06:36:29;;;;;;;5.53;2.25;;;;;;;18.39;73.84;92660.81;2041860;70;20159;-73
2022/06/07 06:38:58;;;;;;;3.30;2.20;;;;;;;18.55;73.09;92664.16;2041873;70;20536;-73
2022/06/07 06:41:34;;;;;;;6.82;2.38;;;;;;;18.69;70.88;92656.09;2041873;70;20163;-74
2022/06/07 06:44:01;;;;;;;5.53;2.58;;;;;;;18.61;73.00;92652.25;2042018;70;20631;-73
2022/06/07 06:46:39;;;;;;;4.43;2.95;;;;;;;18.45;73.65;92647.47;2041862;70;20577;-73
2022/06/07 06:49:06;;;;;;;5.10;3.58;;;;;;;18.24;74.02;92646.13;2041760;70;20166;-74
2022/06/07 06:51:33;;;;;;;5.30;3.20;;;;;;;18.11;74.67;92654.97;2041789;70;20187;-73
2022/06/07 06:54:02;;;;;;;4.43;3.05;;;;;;;18.17;74.03;92649.44;2045046;70;20170;-74
2022/06/07 06:56:46;;;;;;;7.20;2.90;;;;;;;18.65;72.34;92649.50;2041845;69;20346;-74
2022/06/07 06:59:18;;;;;;;3.85;2.97;;;;;;;18.69;71.61;92649.63;2041726;70;20171;-73
2022/06/07 07:01:47;;;;;;;5.72;2.70;;;;;;;18.88;68.26;92659.47;2041731;70;20147;-73
2022/06/07 07:04:19;;;;;;;4.65;2.95;;;;;;;18.93;68.80;92652.50;2041679;70;20243;-74
2022/06/07 07:06:48;;;;;;;4.47;2.80;;;;;;;19.01;69.96;92649.88;2041761;70;20155;-74
2022/06/07 07:09:17;;;;;;;3.67;2.53;;;;;;;19.04;69.67;92649.25;2041766;70;20628;-74
2022/06/07 07:11:48;;;;;;;5.47;2.40;;;;;;;19.11;69.34;92655.16;2041760;69;20171;-74
2022/06/07 07:14:15;;;;;;;5.13;2.92;;;;;;;19.17;69.45;92650.34;2041776;70;20190;-74
2022/06/07 07:16:45;;;;;;;3.55;3.00;;;;;;;18.92;71.59;92648.94;2045191;70;20656;-74
2022/06/07 07:19:13;;;;;;;4.82;2.60;;;;;;;18.67;72.45;92661.69;2041704;70;20199;-74
2022/06/07 07:21:43;;;;;;;3.85;2.63;;;;;;;19.00;70.90;92663.41;2045156;70;20166;-74
2022/06/07 07:24:14;;;;;;;3.70;2.85;;;;;;;18.99;70.40;92678.34;2041798;70;20230;-73
2022/06/07 07:26:44;;;;;;;3.65;2.85;;;;;;;18.81;71.16;92669.97;2041739;70;20585;-74
2022/06/07 07:29:12;;;;;;;3.65;2.33;;;;;;;18.60;72.67;92673.56;2041739;70;20158;-74
2022/06/07 07:31:39;;;;;;;3.22;2.53;;;;;;;19.03;71.93;92672.75;2041743;69;20151;-74
2022/06/07 07:34:10;;;;;;;6.60;2.85;;;;;;;18.63;73.09;92680.78;2041607;70;20139;-73
2022/06/07 07:36:41;;;;;;;3.72;2.72;;;;;;;18.52;73.62;92680.50;2041765;70;20213;-74
2022/06/07 07:39:08;;;;;;;5.25;2.95;;;;;;;18.21;74.24;92684.50;2041779;70;20135;-74
2022/06/07 07:41:37;;;;;;;3.40;3.10;;;;;;;18.38;72.46;92673.63;2041724;70;20210;-74
2022/06/07 07:44:05;;;;;;;5.65;3.90;;;;;;;18.44;74.10;92683.09;2041717;70;20167;-74
2022/06/07 07:46:36;;;;;;;3.85;2.97;;;;;;;18.69;72.07;92683.84;2041662;70;20616;-74
2022/06/07 07:49:05;;;;;;;3.22;2.92;;;;;;;18.31;74.55;92671.97;2041616;70;20174;-74
2022/06/07 07:51:38;;;;;;;3.67;3.05;;;;;;;18.48;73.98;92674.66;2041713;70;20150;-74
2022/06/07 07:54:07;;;;;;;3.92;3.45;;;;;;;18.51;74.50;92675.47;2041680;70;20178;-74
2022/06/07 07:56:34;;;;;;;4.18;3.22;;;;;;;18.84;71.88;92685.03;2041738;70;20612;-73
2022/06/07 07:58:59;;;;;;;4.40;3.10;;;;;;;19.07;71.50;92677.84;2041805;70;20151;-74
2022/06/07 08:01:27;;;;;;;3.13;2.83;;;;;;;19.16;71.10;92680.28;2041630;70;20477;-74
2022/06/07 08:03:55;;;;;;;2.70;2.50;;;;;;;19.34;69.63;92682.19;2041508;70;20147;-74
2022/06/07 08:06:33;;;;;;;3.10;2.35;;;;;;;19.04;70.45;92685.63;2041210;70;20139;-73
2022/06/07 08:09:01;;;;;;;4.00;2.38;;;;;;;19.14;71.97;92673.78;2041642;70;20159;-74
2022/06/07 08:11:30;;;;;;;2.75;2.30;;;;;;;19.21;69.83;92675.41;2041926;70;20521;-74
2022/06/07 08:13:56;;;;;;;4.97;2.30;;;;;;;19.41;68.65;92678.81;2042108;70;20166;-74
2022/06/07 08:16:23;;;;;;;3.97;2.88;;;;;;;19.38;67.96;92685.88;2042273;70;20517;-74
2022/06/07 08:18:48;;;;;;;5.53;4.18;;;;;;;19.17;70.30;92678.16;2041823;70;20245;-74
2022/06/07 08:21:21;;;;;;;5.00;3.25;;;;;;;19.30;69.09;92682.81;2041987;70;20218;-73
2022/06/07 08:23:47;;;;;;;11.45;8.18;;;;;;;19.52;69.35;92686.28;2042133;70;20142;-73
2022/06/07 08:26:14;;;;;;;4.32;3.10;;;;;;;19.50;70.40;92686.22;2042141;70;20202;-73
2022/06/07 08:28:42;;;;;;;3.58;2.50;;;;;;;19.45;69.40;92681.06;2042149;70;20153;-73
2022/06/07 08:31:13;;;;;;;3.10;2.50;;;;;;;19.59;69.46;92689.28;2042179;70;20151;-74
2022/06/07 08:39:08;;;;;;;3.38;3.03;;;;;;;18.58;73.14;92684.91;2042121;70;20123;-74
2022/06/07 08:41:46;;;;;;;7.47;3.65;;;;;;;18.82;73.49;92682.81;2042080;70;20655;-72
2022/06/07 08:44:26;;;;;;;4.60;3.33;;;;;;;18.47;74.60;92681.75;2042119;70;20231;-72
2022/06/07 08:47:01;;;;;;;5.32;3.08;;;;;;;19.11;73.39;92692.97;2042238;70;20147;-75
2022/06/07 08:49:28;;;;;;;5.07;3.17;;;;;;;19.19;72.75;92683.91;2041992;70;20144;-74
2022/06/07 08:52:12;;;;;;;4.05;2.90;;;;;;;18.96;73.43;92693.94;2042201;70;20143;-74
2022/06/07 08:54:40;;;;;;;5.07;2.80;;;;;;;18.68;74.52;92688.81;2042069;70;20613;-74
2022/06/07 08:57:23;;;;;;;3.65;2.78;;;;;;;19.21;73.03;92693.25;2042100;70;20682;-74
2022/06/07 08:59:54;;;;;;;4.10;2.90;;;;;;;18.78;72.94;92686.31;2042036;70;20589;-74
2022/06/07 09:02:46;;;;;;;5.40;2.95;;;;;;;18.54;75.04;92688.38;2042198;70;20536;-74
2022/06/07 09:05:15;;;;;;;4.00;2.50;;;;;;;18.44;75.17;92691.63;2042004;70;20143;-74
2022/06/07 09:07:42;;;;;;;3.47;2.55;;;;;;;18.17;76.30;92689.34;2044244;70;20155;-73
2022/06/07 09:13:22;;;;;;;3.05;2.78;;;;;;;18.36;75.92;92694.22;2045265;70;20166;-73
2022/06/07 09:15:52;;;;;;;6.10;2.40;;;;;;;18.91;74.90;92700.91;2043546;70;20151;-73
2022/06/07 09:18:20;;;;;;;2.63;2.28;;;;;;;19.39;70.26;92701.63;2045163;69;20143;-73
2022/06/07 09:20:50;;;;;;;5.70;3.20;;;;;;;19.04;72.25;92697.75;2045239;70;20193;-73
2022/06/07 09:23:15;;;;;;;5.57;2.70;;;;;;;18.65;73.79;92697.97;2045273;70;20608;-73
2022/06/07 09:25:49;;;;;;;3.38;2.70;;;;;;;18.27;75.98;92696.06;2045122;70;20174;-72
2022/06/07 09:28:19;;;;;;;2.78;2.35;;;;;;;18.58;73.81;92691.34;2045417;70;20514;-73
2022/06/07 09:30:54;;;;;;;3.85;2.20;;;;;;;19.13;71.47;92698.72;2045126;70;20612;-73
2022/06/07 09:33:28;;;;;;;3.33;2.20;;;;;;;19.47;70.07;92693.28;2044996;69;20206;-73
2022/06/07 09:36:06;;;;;;;2.97;2.35;;;;;;;19.58;70.72;92705.69;2045295;70;20139;-73
2022/06/07 09:38:46;;;;;;;4.22;2.45;;;;;;;19.55;71.20;92696.34;2045220;70;20227;-73
2022/06/07 09:41:36;;;;;;;3.53;2.55;;;;;;;19.61;69.52;92704.38;2045139;70;20159;-73
2022/06/07 09:44:15;;;;;;;2.83;2.15;;;;;;;19.66;69.11;92705.97;2042265;70;20150;-74
2022/06/07 09:47:08;;;;;;;3.00;1.92;;;;;;;19.74;69.10;92708.28;2045136;70;20159;-73
2022/06/07 09:49:36;;;;;;;2.28;2.00;;;;;;;19.75;67.86;92701.91;2042533;70;20159;-74
2022/06/07 09:52:26;;;;;;;2.47;1.88;;;;;;;19.73;69.58;92699.00;2041889;70;20228;-74
2022/06/07 09:55:03;;;;;;;4.43;1.67;;;;;;;19.83;67.80;92703.53;2045076;70;20234;-73
2022/06/07 09:57:36;;;;;;;2.47;1.50;;;;;;;19.90;69.32;92700.16;2057977;69;20543;-73
2022/06/07 10:00:38;;;;;;;3.47;1.30;;;;;;;19.83;67.83;92704.25;2045090;70;20150;-74
2022/06/07 10:03:22;;;;;;;2.90;1.30;;;;;;;19.82;69.35;92699.94;2044870;70;20142;-73
2022/06/07 10:06:09;;;;;;;1.70;1.20;;;;;;;19.80;67.41;92697.03;2045280;69;20149;-74
2022/06/07 10:08:36;;;;;;;2.65;1.20;;;;;;;19.78;67.09;92703.41;2038529;70;20163;-73
2022/06/07 10:11:14;;;;;;;1.88;1.30;;;;;;;19.84;68.11;92696.41;2038425;70;20239;-74
2022/06/07 10:13:57;;;;;;;2.00;1.02;;;;;;;19.76;69.09;92694.06;2038480;70;20529;-74
2022/06/07 10:16:35;;;;;;;2.67;1.17;;;;;;;19.55;69.85;92707.03;2038641;70;20345;-74
2022/06/07 10:19:25;;;;;;;1.50;1.15;;;;;;;19.53;70.56;92695.56;2038379;70;20243;-75
2022/06/07 10:22:00;;;;;;;3.63;1.20;;;;;;;19.63;69.76;92695.16;2038594;70;20234;-74
2022/06/07 10:24:46;;;;;;;1.65;1.20;;;;;;;19.81;68.69;92698.50;2038505;70;20183;-74
2022/06/07 10:27:40;;;;;;;2.33;1.00;;;;;;;19.81;70.62;92695.63;2038604;70;20498;-73
2022/06/07 10:30:38;;;;;;;2.03;1.30;;;;;;;19.86;70.41;92697.19;2038595;70;20518;-73
2022/06/07 10:33:25;;;;;;;1.40;1.05;;;;;;;19.98;69.76;92694.66;2038486;70;20155;-74
2022/06/07 10:36:17;;;;;;;1.98;1.10;;;;;;;20.00;71.65;92697.56;2038460;70;20147;-74
2022/06/07 10:38:50;;;;;;;2.20;1.20;;;;;;;20.13;70.24;92695.03;2038627;70;20140;-73
2022/06/07 10:41:24;;;;;;;1.38;1.13;;;;;;;20.28;70.94;92682.53;2038495;70;20159;-74
2022/06/07 10:44:13;;;;;;;3.17;1.35;;;;;;;20.46;69.59;92693.69;2038528;70;20144;-74
2022/06/07 10:46:41;;;;;;;4.38;1.45;;;;;;;20.52;65.43;92680.28;2038115;70;20143;-74
2022/06/07 10:49:16;;;;;;;1.50;1.40;;;;;;;20.52;66.53;92679.53;2038385;70;20142;-75
2022/06/07 10:55:04;;;;;;;2.28;1.40;;;;;;;20.87;63.90;92683.22;2038489;70;20155;-73
2022/06/07 10:57:36;;;;;;;1.60;1.40;;;;;;;21.09;63.64;92680.84;2038555;70;20175;-74
2022/06/07 11:00:17;;;;;;;;;;;;;;;21.41;61.25;92686.53;2038613;70;20124;-74
2022/06/07 11:02:46;;;;;;;2.70;1.40;;;;;;;21.40;61.32;92673.66;2038164;70;20046;-73
2022/06/07 11:11:43;;;;;;;4.32;1.20;;;;;;;21.05;60.55;92657.84;2056569;69;20137;-73
2022/06/07 11:14:37;;;;;;;2.40;1.20;;;;;;;21.14;61.01;92670.94;2056055;69;20603;-73
2022/06/07 11:17:06;;;;;;;1.35;1.20;;;;;;;21.29;61.58;92666.94;2048145;69;20159;-73
2022/06/07 11:19:32;;;;;;;1.20;1.10;;;;;;;21.26;61.67;92661.88;2044969;70;20169;-73
2022/06/07 11:22:03;;;;;;;2.30;1.13;;;;;;;21.14;63.32;92664.47;2045291;70;20178;-73
2022/06/07 11:24:32;;;;;;;2.28;1.08;;;;;;;21.06;64.61;92662.88;2045194;70;20211;-73
2022/06/07 11:27:13;;;;;;;1.20;1.00;;;;;;;21.16;64.63;92661.66;2045125;70;20150;-73
2022/06/07 11:29:40;;;;;;;3.35;1.00;;;;;;;21.24;64.30;92671.13;2044876;70;20163;-72
2022/06/07 11:32:48;;;;;;;4.10;1.30;;;;;;;21.19;63.19;92669.59;2045102;70;20642;-72
2022/06/07 11:35:53;;;;;;;2.95;1.20;;;;;;;21.09;65.71;92675.13;2042017;70;20174;-73
2022/06/07 11:38:18;;;;;;;4.30;1.20;;;;;;;21.05;66.60;92684.34;2045190;70;20284;-72
2022/06/07 11:40:46;;;;;;;1.92;1.17;;;;;;;21.17;66.47;92674.56;2045216;70;20249;-73
2022/06/07 11:44:06;;;;;;;1.45;1.13;;;;;;;21.22;66.21;92673.97;2042097;70;20188;-73
2022/06/07 11:46:35;;;;;;;2.88;1.10;;;;;;;21.35;66.10;92677.84;2031464;70;20228;-72
2022/06/07 11:49:24;;;;;;;1.30;1.20;;;;;;;21.59;63.09;92677.59;2042729;70;20623;-73
2022/06/07 11:52:11;;;;;;;2.50;1.23;;;;;;;21.89;65.13;92659.50;2045335;70;20592;-72
2022/06/07 11:54:46;;;;;;;2.97;1.50;;;;;;;21.78;61.23;92665.06;2045404;70;20671;-72
2022/06/07 11:57:30;;;;;;;3.15;1.50;;;;;;;22.06;60.70;92669.84;2045413;70;20696;-72
2022/06/07 11:59:57;;;;;;;2.88;1.60;;;;;;;21.87;61.60;92662.34;2045652;70;20766;-71
2022/06/07 12:02:30;;;;;;;2.17;1.50;;;;;;;21.87;60.77;92668.09;2045791;70;20151;-72
2022/06/07 12:05:02;;;;;;;;;;;;;;;20.76;62.02;92665.81;2045684;70;20139;-72
2022/06/07 12:07:48;;;;;;;1.77;1.30;;;;;;;21.55;61.32;92646.72;2045501;70;20511;-72
2022/06/07 12:10:17;;;;;;;1.50;1.40;;;;;;;21.31;60.09;92655.56;2045635;70;20659;-72
2022/06/07 12:12:53;;;;;;;1.75;1.20;;;;;;;21.61;59.08;92654.69;2045566;70;20248;-72
2022/06/07 12:15:31;;;;;;;2.45;1.25;;;;;;;21.80;59.34;92658.63;2045514;70;20154;-72
2022/06/07 12:18:14;;;;;;;2.25;1.00;;;;;;;20.93;61.35;92663.31;2045484;70;20501;-71
2022/06/07 12:20:41;;;;;;;2.30;0.75;;;;;;;21.24;59.91;92662.53;2045670;70;20166;-71
2022/06/07 12:23:28;;;;;;;0.70;0.70;;;;;;;20.91;59.60;92663.28;2045666;70;20143;-71
2022/06/07 12:26:06;;;;;;;2.05;0.90;;;;;;;21.04;58.99;92654.28;2045568;70;20627;-71